sensor_id;sensor_type;location;lat;lon;timestamp;temperature;humidity
72440;DHT22;60446;50.752;4.352;2023-03-15T00:01:18;2.30;81.00
72440;DHT22;60446;50.752;4.352;2023-03-15T00:03:46;2.30;80.70
72440;DHT22;60446;50.752;4.352;2023-03-15T00:06:14;2.30;80.70
72440;DHT22;60446;50.752;4.352;2023-03-15T00:08:42;2.40;80.80
72440;DHT22;60446;50.752;4.352;2023-03-15T00:11:14;2.30;80.70
72440;DHT22;60446;50.752;4.352;2023-03-15T00:13:43;2.40;80.50
72440;DHT22;60446;50.752;4.352;2023-03-15T00:16:11;2.40;80.50
72440;DHT22;60446;50.752;4.352;2023-03-15T00:18:44;2.50;80.40
72440;DHT22;60446;50.752;4.352;2023-03-15T00:21:13;2.50;81.00
72440;DHT22;60446;50.752;4.352;2023-03-15T00:23:40;2.50;80.90
72440;DHT22;60446;50.752;4.352;2023-03-15T00:26:08;2.60;80.70
72440;DHT22;60446;50.752;4.352;2023-03-15T00:28:35;2.60;81.10
72440;DHT22;60446;50.752;4.352;2023-03-15T00:31:14;2.50;80.50
72440;DHT22;60446;50.752;4.352;2023-03-15T00:33:50;2.50;80.90
72440;DHT22;60446;50.752;4.352;2023-03-15T00:36:23;2.60;81.20
72440;DHT22;60446;50.752;4.352;2023-03-15T00:38:52;2.60;80.80
72440;DHT22;60446;50.752;4.352;2023-03-15T00:41:21;2.60;80.40
72440;DHT22;60446;50.752;4.352;2023-03-15T00:43:50;2.50;79.80
72440;DHT22;60446;50.752;4.352;2023-03-15T00:46:18;2.50;80.40
72440;DHT22;60446;50.752;4.352;2023-03-15T00:48:48;2.50;80.80
72440;DHT22;60446;50.752;4.352;2023-03-15T00:51:19;2.50;81.10
72440;DHT22;60446;50.752;4.352;2023-03-15T00:53:49;2.30;80.30
72440;DHT22;60446;50.752;4.352;2023-03-15T00:56:19;2.30;81.40
72440;DHT22;60446;50.752;4.352;2023-03-15T00:58:48;2.30;81.80
72440;DHT22;60446;50.752;4.352;2023-03-15T01:01:19;2.30;82.40
72440;DHT22;60446;50.752;4.352;2023-03-15T01:03:49;2.20;82.70
72440;DHT22;60446;50.752;4.352;2023-03-15T01:06:19;2.20;82.20
72440;DHT22;60446;50.752;4.352;2023-03-15T01:08:48;2.20;81.90
72440;DHT22;60446;50.752;4.352;2023-03-15T01:11:18;2.30;81.60
72440;DHT22;60446;50.752;4.352;2023-03-15T01:13:48;2.30;81.90
72440;DHT22;60446;50.752;4.352;2023-03-15T01:16:15;2.30;81.90
72440;DHT22;60446;50.752;4.352;2023-03-15T01:18:43;2.30;82.10
72440;DHT22;60446;50.752;4.352;2023-03-15T01:21:13;2.30;81.80
72440;DHT22;60446;50.752;4.352;2023-03-15T01:23:44;2.30;83.00
72440;DHT22;60446;50.752;4.352;2023-03-15T01:26:14;2.30;83.00
72440;DHT22;60446;50.752;4.352;2023-03-15T01:28:43;2.30;82.50
72440;DHT22;60446;50.752;4.352;2023-03-15T01:31:19;2.40;82.90
72440;DHT22;60446;50.752;4.352;2023-03-15T01:33:48;2.40;83.60
72440;DHT22;60446;50.752;4.352;2023-03-15T01:36:16;2.40;83.90
72440;DHT22;60446;50.752;4.352;2023-03-15T01:38:44;2.40;84.00
72440;DHT22;60446;50.752;4.352;2023-03-15T01:41:13;2.50;84.10
72440;DHT22;60446;50.752;4.352;2023-03-15T01:43:42;2.50;83.70
72440;DHT22;60446;50.752;4.352;2023-03-15T01:46:19;2.50;83.60
72440;DHT22;60446;50.752;4.352;2023-03-15T01:52:04;2.60;83.00
72440;DHT22;60446;50.752;4.352;2023-03-15T01:54:48;2.60;83.40
72440;DHT22;60446;50.752;4.352;2023-03-15T01:57:29;2.70;83.40
72440;DHT22;60446;50.752;4.352;2023-03-15T02:00:13;2.70;83.60
72440;DHT22;60446;50.752;4.352;2023-03-15T02:02:54;2.70;82.80
72440;DHT22;60446;50.752;4.352;2023-03-15T02:05:31;2.70;83.20
72440;DHT22;60446;50.752;4.352;2023-03-15T02:08:05;2.80;84.00
72440;DHT22;60446;50.752;4.352;2023-03-15T02:10:39;2.70;84.10
72440;DHT22;60446;50.752;4.352;2023-03-15T02:13:12;2.80;84.50
72440;DHT22;60446;50.752;4.352;2023-03-15T02:15:41;2.80;83.80
72440;DHT22;60446;50.752;4.352;2023-03-15T02:18:22;2.70;82.90
72440;DHT22;60446;50.752;4.352;2023-03-15T02:26:43;2.80;83.70
72440;DHT22;60446;50.752;4.352;2023-03-15T02:29:18;2.90;83.90
72440;DHT22;60446;50.752;4.352;2023-03-15T02:31:47;2.90;83.90
72440;DHT22;60446;50.752;4.352;2023-03-15T02:34:15;2.90;84.20
72440;DHT22;60446;50.752;4.352;2023-03-15T02:36:42;2.90;84.00
72440;DHT22;60446;50.752;4.352;2023-03-15T02:39:18;2.90;84.40
72440;DHT22;60446;50.752;4.352;2023-03-15T02:41:50;3.00;84.10
72440;DHT22;60446;50.752;4.352;2023-03-15T02:47:20;3.00;83.30
72440;DHT22;60446;50.752;4.352;2023-03-15T02:49:52;2.90;82.60
72440;DHT22;60446;50.752;4.352;2023-03-15T02:52:21;2.80;82.90
72440;DHT22;60446;50.752;4.352;2023-03-15T02:54:49;2.80;83.00
72440;DHT22;60446;50.752;4.352;2023-03-15T02:57:18;2.80;83.00
72440;DHT22;60446;50.752;4.352;2023-03-15T02:59:46;2.80;83.60
72440;DHT22;60446;50.752;4.352;2023-03-15T03:02:17;2.80;83.20
72440;DHT22;60446;50.752;4.352;2023-03-15T03:04:45;2.80;83.10
72440;DHT22;60446;50.752;4.352;2023-03-15T03:07:12;2.80;83.30
72440;DHT22;60446;50.752;4.352;2023-03-15T03:09:49;2.80;83.50
72440;DHT22;60446;50.752;4.352;2023-03-15T03:12:18;2.80;83.10
72440;DHT22;60446;50.752;4.352;2023-03-15T03:14:46;2.80;83.00
72440;DHT22;60446;50.752;4.352;2023-03-15T03:17:16;2.70;83.20
72440;DHT22;60446;50.752;4.352;2023-03-15T03:19:44;2.60;83.50
72440;DHT22;60446;50.752;4.352;2023-03-15T03:22:13;2.60;83.50
72440;DHT22;60446;50.752;4.352;2023-03-15T03:24:40;2.60;83.80
72440;DHT22;60446;50.752;4.352;2023-03-15T03:27:13;2.40;83.80
72440;DHT22;60446;50.752;4.352;2023-03-15T03:29:45;2.40;84.40
72440;DHT22;60446;50.752;4.352;2023-03-15T03:32:13;2.40;84.80
72440;DHT22;60446;50.752;4.352;2023-03-15T03:34:40;2.50;84.70
72440;DHT22;60446;50.752;4.352;2023-03-15T03:37:07;2.60;84.70
72440;DHT22;60446;50.752;4.352;2023-03-15T03:39:50;2.60;84.70
72440;DHT22;60446;50.752;4.352;2023-03-15T03:42:17;2.70;84.70
72440;DHT22;60446;50.752;4.352;2023-03-15T03:44:44;2.80;84.30
72440;DHT22;60446;50.752;4.352;2023-03-15T03:47:12;2.80;84.60
72440;DHT22;60446;50.752;4.352;2023-03-15T03:49:39;2.70;84.70
72440;DHT22;60446;50.752;4.352;2023-03-15T03:52:06;2.80;84.60
72440;DHT22;60446;50.752;4.352;2023-03-15T03:54:35;2.80;84.80
72440;DHT22;60446;50.752;4.352;2023-03-15T03:57:02;2.80;84.60
72440;DHT22;60446;50.752;4.352;2023-03-15T03:59:33;2.80;84.30
72440;DHT22;60446;50.752;4.352;2023-03-15T04:02:03;2.80;84.30
72440;DHT22;60446;50.752;4.352;2023-03-15T04:04:31;2.80;84.30
72440;DHT22;60446;50.752;4.352;2023-03-15T04:06:58;2.80;84.20
72440;DHT22;60446;50.752;4.352;2023-03-15T04:09:34;2.70;84.50
72440;DHT22;60446;50.752;4.352;2023-03-15T04:12:04;2.70;84.40
72440;DHT22;60446;50.752;4.352;2023-03-15T04:14:33;2.80;84.50
72440;DHT22;60446;50.752;4.352;2023-03-15T04:17:02;2.80;84.50
72440;DHT22;60446;50.752;4.352;2023-03-15T04:19:30;2.70;84.70
72440;DHT22;60446;50.752;4.352;2023-03-15T04:21:57;2.80;85.00
72440;DHT22;60446;50.752;4.352;2023-03-15T04:24:33;2.80;85.00
72440;DHT22;60446;50.752;4.352;2023-03-15T04:27:10;2.80;84.50
72440;DHT22;60446;50.752;4.352;2023-03-15T04:29:58;2.90;84.50
72440;DHT22;60446;50.752;4.352;2023-03-15T04:32:55;2.90;84.50
72440;DHT22;60446;50.752;4.352;2023-03-15T04:35:44;2.90;84.30
72440;DHT22;60446;50.752;4.352;2023-03-15T04:38:32;2.90;84.50
72440;DHT22;60446;50.752;4.352;2023-03-15T04:41:21;2.90;84.70
72440;DHT22;60446;50.752;4.352;2023-03-15T04:44:19;2.80;84.70
72440;DHT22;60446;50.752;4.352;2023-03-15T04:47:01;2.70;85.20
72440;DHT22;60446;50.752;4.352;2023-03-15T04:49:47;2.70;85.30
72440;DHT22;60446;50.752;4.352;2023-03-15T04:52:32;2.70;85.60
72440;DHT22;60446;50.752;4.352;2023-03-15T04:55:29;2.80;85.20
72440;DHT22;60446;50.752;4.352;2023-03-15T04:58:17;2.90;84.50
72440;DHT22;60446;50.752;4.352;2023-03-15T05:00:45;2.80;84.90
72440;DHT22;60446;50.752;4.352;2023-03-15T05:03:47;2.80;85.10
72440;DHT22;60446;50.752;4.352;2023-03-15T05:06:35;2.80;85.30
72440;DHT22;60446;50.752;4.352;2023-03-15T05:09:17;2.90;85.00
72440;DHT22;60446;50.752;4.352;2023-03-15T05:12:02;2.90;85.00
72440;DHT22;60446;50.752;4.352;2023-03-15T05:14:40;2.90;85.10
72440;DHT22;60446;50.752;4.352;2023-03-15T05:17:30;2.80;85.10
72440;DHT22;60446;50.752;4.352;2023-03-15T05:20:17;2.80;84.30
72440;DHT22;60446;50.752;4.352;2023-03-15T05:23:11;2.60;84.20
72440;DHT22;60446;50.752;4.352;2023-03-15T05:25:52;2.40;84.30
72440;DHT22;60446;50.752;4.352;2023-03-15T05:28:48;2.20;84.70
72440;DHT22;60446;50.752;4.352;2023-03-15T05:31:33;2.10;84.50
72440;DHT22;60446;50.752;4.352;2023-03-15T05:34:15;2.00;84.30
72440;DHT22;60446;50.752;4.352;2023-03-15T05:36:54;1.90;84.20
72440;DHT22;60446;50.752;4.352;2023-03-15T05:39:45;1.80;84.80
72440;DHT22;60446;50.752;4.352;2023-03-15T05:42:29;1.70;85.10
72440;DHT22;60446;50.752;4.352;2023-03-15T05:45:17;1.70;85.20
72440;DHT22;60446;50.752;4.352;2023-03-15T05:48:03;1.60;85.10
72440;DHT22;60446;50.752;4.352;2023-03-15T05:51:00;1.60;85.00
72440;DHT22;60446;50.752;4.352;2023-03-15T05:54:02;1.50;85.10
72440;DHT22;60446;50.752;4.352;2023-03-15T05:56:48;1.40;85.40
72440;DHT22;60446;50.752;4.352;2023-03-15T05:59:31;1.40;85.00
72440;DHT22;60446;50.752;4.352;2023-03-15T06:02:17;1.30;85.20
72440;DHT22;60446;50.752;4.352;2023-03-15T06:04:57;1.20;85.20
72440;DHT22;60446;50.752;4.352;2023-03-15T06:07:26;1.20;85.80
72440;DHT22;60446;50.752;4.352;2023-03-15T06:09:53;1.10;85.40
72440;DHT22;60446;50.752;4.352;2023-03-15T06:12:20;1.10;85.40
72440;DHT22;60446;50.752;4.352;2023-03-15T06:14:48;1.10;86.00
72440;DHT22;60446;50.752;4.352;2023-03-15T06:17:15;1.20;86.00
72440;DHT22;60446;50.752;4.352;2023-03-15T06:19:43;1.20;86.20
72440;DHT22;60446;50.752;4.352;2023-03-15T06:22:10;1.30;86.10
72440;DHT22;60446;50.752;4.352;2023-03-15T06:24:49;1.30;86.00
72440;DHT22;60446;50.752;4.352;2023-03-15T06:27:16;1.30;86.30
72440;DHT22;60446;50.752;4.352;2023-03-15T06:29:49;1.40;86.30
72440;DHT22;60446;50.752;4.352;2023-03-15T06:32:19;1.30;86.10
72440;DHT22;60446;50.752;4.352;2023-03-15T06:34:46;1.30;85.90
72440;DHT22;60446;50.752;4.352;2023-03-15T06:37:14;1.30;85.90
72440;DHT22;60446;50.752;4.352;2023-03-15T06:39:55;1.30;85.90
72440;DHT22;60446;50.752;4.352;2023-03-15T06:42:22;1.40;86.30
72440;DHT22;60446;50.752;4.352;2023-03-15T06:44:49;1.60;86.70
72440;DHT22;60446;50.752;4.352;2023-03-15T06:47:18;1.80;87.00
72440;DHT22;60446;50.752;4.352;2023-03-15T06:49:45;2.00;87.10
72440;DHT22;60446;50.752;4.352;2023-03-15T06:52:17;2.20;87.10
72440;DHT22;60446;50.752;4.352;2023-03-15T06:54:44;2.40;87.00
72440;DHT22;60446;50.752;4.352;2023-03-15T06:57:12;2.50;86.40
72440;DHT22;60446;50.752;4.352;2023-03-15T06:59:39;2.60;85.90
72440;DHT22;60446;50.752;4.352;2023-03-15T07:02:13;2.60;85.70
72440;DHT22;60446;50.752;4.352;2023-03-15T07:04:42;2.60;85.20
72440;DHT22;60446;50.752;4.352;2023-03-15T07:07:11;2.60;85.00
72440;DHT22;60446;50.752;4.352;2023-03-15T07:09:39;2.50;85.00
72440;DHT22;60446;50.752;4.352;2023-03-15T07:12:07;2.50;84.80
72440;DHT22;60446;50.752;4.352;2023-03-15T07:14:35;2.40;84.70
72440;DHT22;60446;50.752;4.352;2023-03-15T07:17:03;2.40;85.00
72440;DHT22;60446;50.752;4.352;2023-03-15T07:19:30;2.40;85.30
72440;DHT22;60446;50.752;4.352;2023-03-15T07:21:57;2.40;85.70
72440;DHT22;60446;50.752;4.352;2023-03-15T07:24:24;2.40;85.70
72440;DHT22;60446;50.752;4.352;2023-03-15T07:26:53;2.50;86.00
72440;DHT22;60446;50.752;4.352;2023-03-15T07:29:23;2.50;85.80
72440;DHT22;60446;50.752;4.352;2023-03-15T07:31:50;2.60;85.70
72440;DHT22;60446;50.752;4.352;2023-03-15T07:34:18;2.60;85.40
72440;DHT22;60446;50.752;4.352;2023-03-15T07:36:45;2.70;85.50
72440;DHT22;60446;50.752;4.352;2023-03-15T07:39:12;2.80;85.70
72440;DHT22;60446;50.752;4.352;2023-03-15T07:41:40;2.80;85.50
72440;DHT22;60446;50.752;4.352;2023-03-15T07:44:20;2.90;85.40
72440;DHT22;60446;50.752;4.352;2023-03-15T07:46:47;2.90;85.50
72440;DHT22;60446;50.752;4.352;2023-03-15T07:49:14;3.00;85.40
72440;DHT22;60446;50.752;4.352;2023-03-15T07:51:42;3.00;84.90
72440;DHT22;60446;50.752;4.352;2023-03-15T07:54:09;3.10;85.10
72440;DHT22;60446;50.752;4.352;2023-03-15T07:56:36;3.00;84.80
72440;DHT22;60446;50.752;4.352;2023-03-15T07:59:03;3.00;85.20
72440;DHT22;60446;50.752;4.352;2023-03-15T08:01:30;3.00;85.00
72440;DHT22;60446;50.752;4.352;2023-03-15T08:03:57;3.00;84.00
72440;DHT22;60446;50.752;4.352;2023-03-15T08:06:25;3.00;84.60
72440;DHT22;60446;50.752;4.352;2023-03-15T08:08:52;3.10;84.60
72440;DHT22;60446;50.752;4.352;2023-03-15T08:11:19;3.10;85.20
72440;DHT22;60446;50.752;4.352;2023-03-15T08:13:46;3.20;85.60
72440;DHT22;60446;50.752;4.352;2023-03-15T08:16:13;3.40;85.40
72440;DHT22;60446;50.752;4.352;2023-03-15T08:18:40;3.70;84.30
72440;DHT22;60446;50.752;4.352;2023-03-15T08:21:07;3.90;83.90
72440;DHT22;60446;50.752;4.352;2023-03-15T08:23:34;4.10;83.10
72440;DHT22;60446;50.752;4.352;2023-03-15T08:26:02;4.20;81.10
72440;DHT22;60446;50.752;4.352;2023-03-15T08:28:29;4.40;81.60
72440;DHT22;60446;50.752;4.352;2023-03-15T08:30:56;4.40;78.70
72440;DHT22;60446;50.752;4.352;2023-03-15T08:33:23;4.50;79.20
72440;DHT22;60446;50.752;4.352;2023-03-15T08:35:54;4.60;78.20
72440;DHT22;60446;50.752;4.352;2023-03-15T08:38:22;4.50;77.50
72440;DHT22;60446;50.752;4.352;2023-03-15T08:40:49;4.60;78.20
72440;DHT22;60446;50.752;4.352;2023-03-15T08:43:21;4.80;77.50
72440;DHT22;60446;50.752;4.352;2023-03-15T08:45:49;4.80;78.10
72440;DHT22;60446;50.752;4.352;2023-03-15T08:48:27;4.70;80.10
72440;DHT22;60446;50.752;4.352;2023-03-15T08:51:00;4.50;76.50
72440;DHT22;60446;50.752;4.352;2023-03-15T08:53:29;4.40;77.50
72440;DHT22;60446;50.752;4.352;2023-03-15T08:55:57;4.40;78.60
72440;DHT22;60446;50.752;4.352;2023-03-15T08:58:24;4.50;78.40
72440;DHT22;60446;50.752;4.352;2023-03-15T09:00:51;4.50;78.40
72440;DHT22;60446;50.752;4.352;2023-03-15T09:03:19;4.50;77.40
72440;DHT22;60446;50.752;4.352;2023-03-15T09:05:48;4.40;76.70
72440;DHT22;60446;50.752;4.352;2023-03-15T09:08:15;4.40;78.20
72440;DHT22;60446;50.752;4.352;2023-03-15T09:10:46;4.50;78.20
72440;DHT22;60446;50.752;4.352;2023-03-15T09:13:14;4.50;77.80
72440;DHT22;60446;50.752;4.352;2023-03-15T09:15:41;4.60;76.70
72440;DHT22;60446;50.752;4.352;2023-03-15T09:18:08;4.70;75.50
72440;DHT22;60446;50.752;4.352;2023-03-15T09:20:35;4.70;74.20
72440;DHT22;60446;50.752;4.352;2023-03-15T09:23:02;4.90;76.10
72440;DHT22;60446;50.752;4.352;2023-03-15T09:25:29;5.00;74.10
72440;DHT22;60446;50.752;4.352;2023-03-15T09:27:56;5.10;71.90
72440;DHT22;60446;50.752;4.352;2023-03-15T09:30:23;5.30;72.00
72440;DHT22;60446;50.752;4.352;2023-03-15T09:32:51;5.50;72.90
72440;DHT22;60446;50.752;4.352;2023-03-15T09:35:19;5.60;70.70
72440;DHT22;60446;50.752;4.352;2023-03-15T09:37:48;5.60;70.70
72440;DHT22;60446;50.752;4.352;2023-03-15T09:40:31;5.50;70.10
72440;DHT22;60446;50.752;4.352;2023-03-15T09:51:42;5.20;68.70
72440;DHT22;60446;50.752;4.352;2023-03-15T09:54:17;5.20;68.90
72440;DHT22;60446;50.752;4.352;2023-03-15T09:56:55;5.20;70.50
72440;DHT22;60446;50.752;4.352;2023-03-15T09:59:33;5.20;71.20
72440;DHT22;60446;50.752;4.352;2023-03-15T10:02:17;5.20;71.10
72440;DHT22;60446;50.752;4.352;2023-03-15T10:04:51;5.50;71.20
72440;DHT22;60446;50.752;4.352;2023-03-15T10:07:22;5.60;68.50
72440;DHT22;60446;50.752;4.352;2023-03-15T10:09:49;5.60;62.30
72440;DHT22;60446;50.752;4.352;2023-03-15T10:12:29;5.70;63.40
72440;DHT22;60446;50.752;4.352;2023-03-15T10:18:15;5.70;64.20
72440;DHT22;60446;50.752;4.352;2023-03-15T10:20:59;5.80;68.00
72440;DHT22;60446;50.752;4.352;2023-03-15T10:23:49;6.10;68.00
72440;DHT22;60446;50.752;4.352;2023-03-15T10:26:23;6.20;68.50
72440;DHT22;60446;50.752;4.352;2023-03-15T10:28:53;6.40;67.60
72440;DHT22;60446;50.752;4.352;2023-03-15T10:31:25;6.50;68.70
72440;DHT22;60446;50.752;4.352;2023-03-15T10:34:09;6.50;66.80
72440;DHT22;60446;50.752;4.352;2023-03-15T10:36:48;6.40;63.40
72440;DHT22;60446;50.752;4.352;2023-03-15T10:39:21;6.40;66.00
72440;DHT22;60446;50.752;4.352;2023-03-15T10:41:50;6.30;65.70
72440;DHT22;60446;50.752;4.352;2023-03-15T10:44:24;6.20;61.70
72440;DHT22;60446;50.752;4.352;2023-03-15T10:47:05;6.10;60.40
72440;DHT22;60446;50.752;4.352;2023-03-15T10:49:54;6.10;60.10
72440;DHT22;60446;50.752;4.352;2023-03-15T10:52:43;5.90;60.60
72440;DHT22;60446;50.752;4.352;2023-03-15T10:55:20;5.80;60.00
72440;DHT22;60446;50.752;4.352;2023-03-15T10:58:00;6.00;63.40
72440;DHT22;60446;50.752;4.352;2023-03-15T11:01:04;6.20;61.80
72440;DHT22;60446;50.752;4.352;2023-03-15T11:03:36;6.30;59.80
72440;DHT22;60446;50.752;4.352;2023-03-15T11:06:19;6.60;58.30
72440;DHT22;60446;50.752;4.352;2023-03-15T11:08:48;6.80;56.30
72440;DHT22;60446;50.752;4.352;2023-03-15T11:11:15;7.00;56.20
72440;DHT22;60446;50.752;4.352;2023-03-15T11:13:54;7.20;58.90
72440;DHT22;60446;50.752;4.352;2023-03-15T11:16:33;7.30;54.60
72440;DHT22;60446;50.752;4.352;2023-03-15T11:19:02;7.40;54.10
72440;DHT22;60446;50.752;4.352;2023-03-15T11:21:38;7.60;50.00
72440;DHT22;60446;50.752;4.352;2023-03-15T11:26:51;7.70;52.30
72440;DHT22;60446;50.752;4.352;2023-03-15T11:29:30;7.80;50.40
72440;DHT22;60446;50.752;4.352;2023-03-15T11:32:09;7.80;49.70
72440;DHT22;60446;50.752;4.352;2023-03-15T11:34:47;7.90;53.60
72440;DHT22;60446;50.752;4.352;2023-03-15T11:37:24;7.90;51.20
72440;DHT22;60446;50.752;4.352;2023-03-15T11:40:05;7.90;55.10
72440;DHT22;60446;50.752;4.352;2023-03-15T11:48:41;8.00;57.90
72440;DHT22;60446;50.752;4.352;2023-03-15T11:51:11;7.90;56.80
72440;DHT22;60446;50.752;4.352;2023-03-15T11:53:45;7.70;56.40
72440;DHT22;60446;50.752;4.352;2023-03-15T11:56:26;7.50;53.70
72440;DHT22;60446;50.752;4.352;2023-03-15T12:01:34;7.20;59.50
72440;DHT22;60446;50.752;4.352;2023-03-15T12:12:47;7.50;55.60
72440;DHT22;60446;50.752;4.352;2023-03-15T12:18:04;7.40;53.20
72440;DHT22;60446;50.752;4.352;2023-03-15T12:20:41;7.50;57.20
72440;DHT22;60446;50.752;4.352;2023-03-15T12:28:33;7.90;53.40
72440;DHT22;60446;50.752;4.352;2023-03-15T12:31:13;8.10;55.30
72440;DHT22;60446;50.752;4.352;2023-03-15T12:33:50;8.00;50.30
72440;DHT22;60446;50.752;4.352;2023-03-15T12:47:01;8.20;50.00
72440;DHT22;60446;50.752;4.352;2023-03-15T12:55:11;8.50;49.20
72440;DHT22;60446;50.752;4.352;2023-03-15T12:57:48;8.50;50.20
72440;DHT22;60446;50.752;4.352;2023-03-15T13:00:20;8.40;51.20
72440;DHT22;60446;50.752;4.352;2023-03-15T13:03:15;8.40;51.20
72440;DHT22;60446;50.752;4.352;2023-03-15T13:12:11;8.70;54.20
72440;DHT22;60446;50.752;4.352;2023-03-15T13:20:36;9.20;49.20
72440;DHT22;60446;50.752;4.352;2023-03-15T13:23:19;9.30;52.30
72440;DHT22;60446;50.752;4.352;2023-03-15T13:26:16;9.40;51.40
72440;DHT22;60446;50.752;4.352;2023-03-15T13:29:01;9.50;51.80
72440;DHT22;60446;50.752;4.352;2023-03-15T13:31:40;9.60;51.70
72440;DHT22;60446;50.752;4.352;2023-03-15T13:34:16;9.70;51.30
72440;DHT22;60446;50.752;4.352;2023-03-15T13:37:14;9.60;49.10
72440;DHT22;60446;50.752;4.352;2023-03-15T13:40:06;9.60;48.80
72440;DHT22;60446;50.752;4.352;2023-03-15T13:42:49;9.70;50.50
72440;DHT22;60446;50.752;4.352;2023-03-15T13:45:23;9.50;50.30
72440;DHT22;60446;50.752;4.352;2023-03-15T13:48:04;9.40;52.20
72440;DHT22;60446;50.752;4.352;2023-03-15T13:50:35;9.20;49.70
72440;DHT22;60446;50.752;4.352;2023-03-15T13:53:18;9.00;49.60
72440;DHT22;60446;50.752;4.352;2023-03-15T13:56:28;9.00;49.30
72440;DHT22;60446;50.752;4.352;2023-03-15T13:59:18;8.90;49.40
72440;DHT22;60446;50.752;4.352;2023-03-15T14:01:55;9.00;49.60
72440;DHT22;60446;50.752;4.352;2023-03-15T14:05:05;9.20;51.60
72440;DHT22;60446;50.752;4.352;2023-03-15T14:07:43;9.30;48.20
72440;DHT22;60446;50.752;4.352;2023-03-15T14:10:36;9.50;48.00
72440;DHT22;60446;50.752;4.352;2023-03-15T14:13:25;9.50;46.40
72440;DHT22;60446;50.752;4.352;2023-03-15T14:16:12;9.50;47.20
72440;DHT22;60446;50.752;4.352;2023-03-15T14:18:48;9.80;48.50
72440;DHT22;60446;50.752;4.352;2023-03-15T14:21:34;10.00;50.30
72440;DHT22;60446;50.752;4.352;2023-03-15T14:24:28;10.10;48.50
72440;DHT22;60446;50.752;4.352;2023-03-15T14:27:34;10.20;48.30
72440;DHT22;60446;50.752;4.352;2023-03-15T14:30:18;10.10;45.70
72440;DHT22;60446;50.752;4.352;2023-03-15T14:33:31;10.20;47.70
72440;DHT22;60446;50.752;4.352;2023-03-15T14:36:38;10.00;49.70
72440;DHT22;60446;50.752;4.352;2023-03-15T14:39:18;9.80;45.90
72440;DHT22;60446;50.752;4.352;2023-03-15T14:41:52;9.90;49.50
72440;DHT22;60446;50.752;4.352;2023-03-15T14:44:27;9.80;47.70
72440;DHT22;60446;50.752;4.352;2023-03-15T14:47:12;9.70;47.20
72440;DHT22;60446;50.752;4.352;2023-03-15T14:49:51;9.50;46.20
72440;DHT22;60446;50.752;4.352;2023-03-15T14:52:25;9.50;49.80
72440;DHT22;60446;50.752;4.352;2023-03-15T14:54:55;9.60;49.10
72440;DHT22;60446;50.752;4.352;2023-03-15T14:57:30;9.70;49.40
72440;DHT22;60446;50.752;4.352;2023-03-15T15:00:06;9.80;48.50
72440;DHT22;60446;50.752;4.352;2023-03-15T15:02:46;9.70;49.60
72440;DHT22;60446;50.752;4.352;2023-03-15T15:05:23;9.50;49.30
72440;DHT22;60446;50.752;4.352;2023-03-15T15:08:12;9.40;49.70
72440;DHT22;60446;50.752;4.352;2023-03-15T15:10:44;9.40;50.00
72440;DHT22;60446;50.752;4.352;2023-03-15T15:13:30;9.40;51.70
72440;DHT22;60446;50.752;4.352;2023-03-15T15:15:57;9.50;49.20
72440;DHT22;60446;50.752;4.352;2023-03-15T15:18:30;9.60;48.60
72440;DHT22;60446;50.752;4.352;2023-03-15T15:21:10;9.60;49.90
72440;DHT22;60446;50.752;4.352;2023-03-15T15:24:05;9.70;49.00
72440;DHT22;60446;50.752;4.352;2023-03-15T15:26:48;9.80;49.60
72440;DHT22;60446;50.752;4.352;2023-03-15T15:29:29;9.70;48.20
72440;DHT22;60446;50.752;4.352;2023-03-15T15:32:01;9.60;49.20
72440;DHT22;60446;50.752;4.352;2023-03-15T15:34:32;9.60;49.40
72440;DHT22;60446;50.752;4.352;2023-03-15T15:36:59;9.80;49.70
72440;DHT22;60446;50.752;4.352;2023-03-15T15:39:29;9.90;49.40
72440;DHT22;60446;50.752;4.352;2023-03-15T15:42:00;10.20;48.70
72440;DHT22;60446;50.752;4.352;2023-03-15T15:44:30;10.30;48.80
72440;DHT22;60446;50.752;4.352;2023-03-15T15:46:57;10.50;47.80
72440;DHT22;60446;50.752;4.352;2023-03-15T15:49:27;10.70;47.90
72440;DHT22;60446;50.752;4.352;2023-03-15T15:52:01;10.80;46.90
72440;DHT22;60446;50.752;4.352;2023-03-15T15:54:31;10.70;48.50
72440;DHT22;60446;50.752;4.352;2023-03-15T15:57:08;10.50;48.90
72440;DHT22;60446;50.752;4.352;2023-03-15T15:59:47;10.30;48.90
72440;DHT22;60446;50.752;4.352;2023-03-15T16:02:17;10.00;48.40
72440;DHT22;60446;50.752;4.352;2023-03-15T16:04:58;9.90;50.50
72440;DHT22;60446;50.752;4.352;2023-03-15T16:07:27;9.80;49.70
72440;DHT22;60446;50.752;4.352;2023-03-15T16:09:57;9.70;49.70
72440;DHT22;60446;50.752;4.352;2023-03-15T16:12:28;9.70;48.50
72440;DHT22;60446;50.752;4.352;2023-03-15T16:14:58;9.90;48.90
72440;DHT22;60446;50.752;4.352;2023-03-15T16:17:26;9.80;49.10
72440;DHT22;60446;50.752;4.352;2023-03-15T16:19:55;9.80;51.50
72440;DHT22;60446;50.752;4.352;2023-03-15T16:22:28;9.60;48.90
72440;DHT22;60446;50.752;4.352;2023-03-15T16:25:00;9.40;50.00
72440;DHT22;60446;50.752;4.352;2023-03-15T16:27:29;9.20;50.80
72440;DHT22;60446;50.752;4.352;2023-03-15T16:29:56;9.10;50.30
72440;DHT22;60446;50.752;4.352;2023-03-15T16:32:25;9.00;49.90
72440;DHT22;60446;50.752;4.352;2023-03-15T16:35:11;8.80;51.90
72440;DHT22;60446;50.752;4.352;2023-03-15T16:37:42;8.70;53.40
72440;DHT22;60446;50.752;4.352;2023-03-15T16:40:26;8.70;50.70
72440;DHT22;60446;50.752;4.352;2023-03-15T16:42:58;8.70;50.30
72440;DHT22;60446;50.752;4.352;2023-03-15T16:45:26;8.60;50.70
72440;DHT22;60446;50.752;4.352;2023-03-15T16:47:54;8.50;51.90
72440;DHT22;60446;50.752;4.352;2023-03-15T16:50:22;8.40;52.20
72440;DHT22;60446;50.752;4.352;2023-03-15T16:52:52;8.40;52.40
72440;DHT22;60446;50.752;4.352;2023-03-15T16:55:26;8.50;53.00
72440;DHT22;60446;50.752;4.352;2023-03-15T16:57:55;8.30;49.90
72440;DHT22;60446;50.752;4.352;2023-03-15T17:00:23;8.40;51.90
72440;DHT22;60446;50.752;4.352;2023-03-15T17:02:51;8.30;49.90
72440;DHT22;60446;50.752;4.352;2023-03-15T17:05:20;8.30;51.00
72440;DHT22;60446;50.752;4.352;2023-03-15T17:07:48;8.30;53.20
72440;DHT22;60446;50.752;4.352;2023-03-15T17:10:22;8.20;53.00
72440;DHT22;60446;50.752;4.352;2023-03-15T17:12:54;8.20;56.00
72440;DHT22;60446;50.752;4.352;2023-03-15T17:15:23;8.10;55.50
72440;DHT22;60446;50.752;4.352;2023-03-15T17:17:54;8.10;53.80
72440;DHT22;60446;50.752;4.352;2023-03-15T17:20:35;8.00;56.20
72440;DHT22;60446;50.752;4.352;2023-03-15T17:23:06;7.80;54.70
72440;DHT22;60446;50.752;4.352;2023-03-15T17:25:40;7.80;54.00
72440;DHT22;60446;50.752;4.352;2023-03-15T17:28:19;7.70;53.80
72440;DHT22;60446;50.752;4.352;2023-03-15T17:30:55;7.70;55.80
72440;DHT22;60446;50.752;4.352;2023-03-15T17:33:45;7.60;55.60
72440;DHT22;60446;50.752;4.352;2023-03-15T17:36:21;7.50;58.50
72440;DHT22;60446;50.752;4.352;2023-03-15T17:39:09;7.30;58.30
72440;DHT22;60446;50.752;4.352;2023-03-15T17:41:41;7.20;55.40
72440;DHT22;60446;50.752;4.352;2023-03-15T17:44:12;7.10;58.10
72440;DHT22;60446;50.752;4.352;2023-03-15T17:46:57;7.00;61.30
72440;DHT22;60446;50.752;4.352;2023-03-15T17:49:34;6.80;61.40
72440;DHT22;60446;50.752;4.352;2023-03-15T17:52:14;6.70;61.00